Albert, OK

5:00 PM CDT on August 29, 2014 (GMT -0500)
Peck's country | Change Station
CLOSE
Current Station
Personal Weather Station
Location: Anadarko, OK
Elevation: 1255 ft
Nearby Weather Stations

Elev 1255 ft 35.10 °N, 98.32 °W | Updated 9 minutes ago

Partly Cloudy
Partly Cloudy
82.5 °F
Feels Like 87 °F
N
10.0
Wind Variable Wind from South
Gusts 19.0 mph

Today
High -- | Low -- °F
--% Chance of Precip.
Yesterday
High -- | Low -- °F
Precip. -- in
7:03 AM 8:04 PM
Waxing Crescent, 17% visible
Pressure 29.89 in
Visibility 10.0 miles
Clouds Scattered Clouds 3100 ft
Scattered Clouds 4400 ft
Scattered Clouds 8500 ft
Heat Index 87 °F
Dew Point 70 °F
Humidity 67%
Rainfall 0.05 in
Snow Depth Not available.
UV 4 out of 12
Pollen 7.60 out of 12
Air Quality Not available.
Flu Activity Not available.
METAR KCHK 292155Z AUTO 21007KT 10SM SCT031 SCT044 SCT085 27/21 A2989 RMK AO2

More Conditions Fewer Conditions

Pressure 29.89 in
Visibility 10.0 miles
Clouds Scattered Clouds 3100 ft
Scattered Clouds 4400 ft
Scattered Clouds 8500 ft
Heat Index 87 °F
Dew Point 70 °F
Humidity 67%
Rainfall 0.05 in
Snow Depth Not available.
UV 4 out of 12
Pollen 7.60 out of 12
Air Quality Not available.
Flu Activity Not available.
METAR KCHK 292155Z AUTO 21007KT 10SM SCT031 SCT044 SCT085 27/21 A2989 RMK AO2

More Conditions Fewer Conditions

10-Day Weather Forecast

Almanac

Astronomy

Aug. 29, 2014 Rise Set
Actual Time 7:03 AM CDT 8:04 PM CDT
Civil Twilight 6:37 AM CDT 8:30 PM CDT
Nautical Twilight 6:06 AM CDT 9:01 PM CDT
Astronomical Twilight 5:34 AM CDT 9:33 PM CDT
Moon 10:44 AM CDT 10:13 PM CDT
Length of Visible Light 13h 52m
Length of Day
13h 00m
Tomorrow will be 2m 7s shorter.
Waxing Crescent, 17% of the Moon is Illuminated
Today
Waxing Crescent
Sep 2
First Quarter
Sep 8
Full
Sep 15
Last Quarter
Sep 24
New

Today's Extremes

State Highs State Lows

Community

WunderPhotos

Upload Photos

1,748,354 photos uploaded!

Nearby

Snow Depth

Station Depth Elevation
No new snow has been reported.

Earthquake Activity

City Distance Mag. Time & Date
Guthrie, Oklahoma 69 miles 3.2 10:39 AM CDT
2014-08-29
Perry, Oklahoma 83 miles 3.0 4:52 AM CDT
2014-08-29
Stillwater, Oklahoma 89 miles 3.1 10:44 AM CDT
2014-08-27
Anthony, Kansas 128 miles 2.8 10:11 AM CDT
2014-08-27
Minimum magnitude displayed is 2.5.

Coastal Water Temperatures

Place Temperature
No Stations Reporting

Nearby Weather Stations